sensor_id;sensor_type;location;lat;lon;timestamp;P1;durP1;ratioP1;P2;durP2;ratioP2
5742;SDS011;2896;53.500;10.020;2023-12-04T00:02:08;43.03;;;20.43;;
5742;SDS011;2896;53.500;10.020;2023-12-04T00:04:34;37.77;;;19.73;;
5742;SDS011;2896;53.500;10.020;2023-12-04T00:07:03;39.83;;;19.70;;
5742;SDS011;2896;53.500;10.020;2023-12-04T00:09:29;44.17;;;20.43;;
5742;SDS011;2896;53.500;10.020;2023-12-04T00:11:56;46.63;;;20.00;;
5742;SDS011;2896;53.500;10.020;2023-12-04T00:14:23;42.67;;;19.63;;
5742;SDS011;2896;53.500;10.020;2023-12-04T00:16:50;47.33;;;22.47;;
5742;SDS011;2896;53.500;10.020;2023-12-04T00:19:16;40.17;;;19.10;;
5742;SDS011;2896;53.500;10.020;2023-12-04T00:21:43;37.00;;;20.43;;
5742;SDS011;2896;53.500;10.020;2023-12-04T00:24:11;40.00;;;19.13;;
5742;SDS011;2896;53.500;10.020;2023-12-04T00:26:38;41.53;;;20.07;;
5742;SDS011;2896;53.500;10.020;2023-12-04T00:29:05;41.93;;;19.90;;
5742;SDS011;2896;53.500;10.020;2023-12-04T00:31:32;42.87;;;21.20;;
5742;SDS011;2896;53.500;10.020;2023-12-04T00:33:59;38.87;;;19.67;;
5742;SDS011;2896;53.500;10.020;2023-12-04T00:36:25;43.67;;;20.27;;
5742;SDS011;2896;53.500;10.020;2023-12-04T00:38:52;45.13;;;20.70;;
5742;SDS011;2896;53.500;10.020;2023-12-04T00:41:20;53.07;;;23.00;;
5742;SDS011;2896;53.500;10.020;2023-12-04T00:43:47;44.73;;;21.30;;
5742;SDS011;2896;53.500;10.020;2023-12-04T00:46:14;44.83;;;19.70;;
5742;SDS011;2896;53.500;10.020;2023-12-04T00:48:40;45.90;;;20.93;;
5742;SDS011;2896;53.500;10.020;2023-12-04T00:51:07;44.03;;;21.70;;
5742;SDS011;2896;53.500;10.020;2023-12-04T00:53:34;37.50;;;19.70;;
5742;SDS011;2896;53.500;10.020;2023-12-04T00:56:01;39.83;;;20.57;;
5742;SDS011;2896;53.500;10.020;2023-12-04T00:58:29;39.27;;;19.77;;
5742;SDS011;2896;53.500;10.020;2023-12-04T01:00:55;43.93;;;20.20;;
5742;SDS011;2896;53.500;10.020;2023-12-04T01:03:22;43.63;;;21.97;;
5742;SDS011;2896;53.500;10.020;2023-12-04T01:05:51;45.03;;;21.20;;
5742;SDS011;2896;53.500;10.020;2023-12-04T01:08:18;42.43;;;21.03;;
5742;SDS011;2896;53.500;10.020;2023-12-04T01:10:44;45.83;;;19.07;;
5742;SDS011;2896;53.500;10.020;2023-12-04T01:13:11;45.13;;;22.40;;
5742;SDS011;2896;53.500;10.020;2023-12-04T01:15:39;50.27;;;22.10;;
5742;SDS011;2896;53.500;10.020;2023-12-04T01:18:07;39.30;;;18.60;;
5742;SDS011;2896;53.500;10.020;2023-12-04T01:20:34;40.63;;;20.60;;
5742;SDS011;2896;53.500;10.020;2023-12-04T01:23:01;37.50;;;19.03;;
5742;SDS011;2896;53.500;10.020;2023-12-04T01:25:28;43.13;;;21.30;;
5742;SDS011;2896;53.500;10.020;2023-12-04T01:27:54;40.70;;;19.87;;
5742;SDS011;2896;53.500;10.020;2023-12-04T01:30:21;46.63;;;21.17;;
5742;SDS011;2896;53.500;10.020;2023-12-04T01:32:49;48.80;;;20.57;;
5742;SDS011;2896;53.500;10.020;2023-12-04T01:35:16;41.40;;;20.10;;
5742;SDS011;2896;53.500;10.020;2023-12-04T01:37:44;43.60;;;20.40;;
5742;SDS011;2896;53.500;10.020;2023-12-04T01:40:11;58.07;;;23.10;;
5742;SDS011;2896;53.500;10.020;2023-12-04T01:42:38;41.53;;;19.43;;
5742;SDS011;2896;53.500;10.020;2023-12-04T01:45:05;42.97;;;20.30;;
5742;SDS011;2896;53.500;10.020;2023-12-04T01:47:32;40.73;;;21.27;;
5742;SDS011;2896;53.500;10.020;2023-12-04T01:50:00;40.67;;;19.30;;
5742;SDS011;2896;53.500;10.020;2023-12-04T01:52:27;46.30;;;22.00;;
5742;SDS011;2896;53.500;10.020;2023-12-04T01:54:54;40.53;;;20.40;;
5742;SDS011;2896;53.500;10.020;2023-12-04T01:57:21;50.10;;;21.60;;
5742;SDS011;2896;53.500;10.020;2023-12-04T01:59:48;51.63;;;21.00;;
5742;SDS011;2896;53.500;10.020;2023-12-04T02:02:14;48.90;;;20.80;;
5742;SDS011;2896;53.500;10.020;2023-12-04T02:04:41;43.27;;;21.60;;
5742;SDS011;2896;53.500;10.020;2023-12-04T02:07:09;37.90;;;20.53;;
5742;SDS011;2896;53.500;10.020;2023-12-04T02:09:36;37.53;;;19.93;;
5742;SDS011;2896;53.500;10.020;2023-12-04T02:12:04;41.97;;;20.60;;
5742;SDS011;2896;53.500;10.020;2023-12-04T02:14:31;49.10;;;20.33;;
5742;SDS011;2896;53.500;10.020;2023-12-04T02:16:58;39.53;;;20.60;;
5742;SDS011;2896;53.500;10.020;2023-12-04T02:19:28;52.10;;;21.07;;
5742;SDS011;2896;53.500;10.020;2023-12-04T02:21:55;50.60;;;21.40;;
5742;SDS011;2896;53.500;10.020;2023-12-04T02:24:23;50.80;;;22.43;;
5742;SDS011;2896;53.500;10.020;2023-12-04T02:26:51;56.93;;;21.27;;
5742;SDS011;2896;53.500;10.020;2023-12-04T02:29:21;44.27;;;21.90;;
5742;SDS011;2896;53.500;10.020;2023-12-04T02:31:51;44.50;;;22.47;;
5742;SDS011;2896;53.500;10.020;2023-12-04T02:34:21;46.20;;;21.30;;
5742;SDS011;2896;53.500;10.020;2023-12-04T02:36:49;43.67;;;21.40;;
5742;SDS011;2896;53.500;10.020;2023-12-04T02:39:17;48.13;;;21.37;;
5742;SDS011;2896;53.500;10.020;2023-12-04T02:41:46;50.53;;;21.27;;
5742;SDS011;2896;53.500;10.020;2023-12-04T02:44:13;50.07;;;22.97;;
5742;SDS011;2896;53.500;10.020;2023-12-04T02:46:40;46.53;;;23.10;;
5742;SDS011;2896;53.500;10.020;2023-12-04T02:49:06;53.60;;;24.83;;
5742;SDS011;2896;53.500;10.020;2023-12-04T02:51:33;67.53;;;23.40;;
5742;SDS011;2896;53.500;10.020;2023-12-04T02:54:00;56.13;;;23.60;;
5742;SDS011;2896;53.500;10.020;2023-12-04T02:56:26;50.47;;;22.40;;
5742;SDS011;2896;53.500;10.020;2023-12-04T02:58:54;54.37;;;25.20;;
5742;SDS011;2896;53.500;10.020;2023-12-04T03:01:21;49.37;;;22.13;;
5742;SDS011;2896;53.500;10.020;2023-12-04T03:03:48;51.20;;;23.47;;
5742;SDS011;2896;53.500;10.020;2023-12-04T03:06:15;54.03;;;22.70;;
5742;SDS011;2896;53.500;10.020;2023-12-04T03:08:41;56.43;;;22.47;;
5742;SDS011;2896;53.500;10.020;2023-12-04T03:11:08;58.43;;;23.53;;
5742;SDS011;2896;53.500;10.020;2023-12-04T03:13:35;53.13;;;23.80;;
5742;SDS011;2896;53.500;10.020;2023-12-04T03:16:03;54.73;;;23.37;;
5742;SDS011;2896;53.500;10.020;2023-12-04T03:18:30;45.03;;;21.07;;
5742;SDS011;2896;53.500;10.020;2023-12-04T03:20:57;48.83;;;22.73;;
5742;SDS011;2896;53.500;10.020;2023-12-04T03:23:24;48.73;;;21.53;;
5742;SDS011;2896;53.500;10.020;2023-12-04T03:25:50;46.73;;;21.27;;
5742;SDS011;2896;53.500;10.020;2023-12-04T03:28:17;45.37;;;22.00;;
5742;SDS011;2896;53.500;10.020;2023-12-04T03:30:44;39.17;;;19.70;;
5742;SDS011;2896;53.500;10.020;2023-12-04T03:33:12;50.73;;;22.77;;
5742;SDS011;2896;53.500;10.020;2023-12-04T03:35:39;42.80;;;20.50;;
5742;SDS011;2896;53.500;10.020;2023-12-04T03:38:06;43.83;;;20.80;;
5742;SDS011;2896;53.500;10.020;2023-12-04T03:40:32;40.27;;;19.60;;
5742;SDS011;2896;53.500;10.020;2023-12-04T03:42:59;46.47;;;22.30;;
5742;SDS011;2896;53.500;10.020;2023-12-04T03:45:26;54.67;;;22.60;;
5742;SDS011;2896;53.500;10.020;2023-12-04T03:47:53;40.77;;;19.87;;
5742;SDS011;2896;53.500;10.020;2023-12-04T03:50:21;45.53;;;20.73;;
5742;SDS011;2896;53.500;10.020;2023-12-04T03:52:48;40.10;;;19.27;;
5742;SDS011;2896;53.500;10.020;2023-12-04T03:55:14;41.70;;;19.43;;
5742;SDS011;2896;53.500;10.020;2023-12-04T03:57:44;36.53;;;18.63;;
5742;SDS011;2896;53.500;10.020;2023-12-04T04:00:11;47.80;;;21.13;;
5742;SDS011;2896;53.500;10.020;2023-12-04T04:02:39;45.17;;;21.87;;
5742;SDS011;2896;53.500;10.020;2023-12-04T04:05:07;43.03;;;20.93;;
5742;SDS011;2896;53.500;10.020;2023-12-04T04:07:35;41.70;;;19.87;;
5742;SDS011;2896;53.500;10.020;2023-12-04T04:10:02;43.70;;;20.50;;
5742;SDS011;2896;53.500;10.020;2023-12-04T04:12:30;41.17;;;18.40;;
5742;SDS011;2896;53.500;10.020;2023-12-04T04:14:56;38.03;;;19.47;;
5742;SDS011;2896;53.500;10.020;2023-12-04T04:17:23;40.40;;;18.70;;
5742;SDS011;2896;53.500;10.020;2023-12-04T04:19:51;38.10;;;19.40;;
5742;SDS011;2896;53.500;10.020;2023-12-04T04:22:17;37.87;;;18.20;;
5742;SDS011;2896;53.500;10.020;2023-12-04T04:24:45;44.37;;;19.50;;
5742;SDS011;2896;53.500;10.020;2023-12-04T04:27:12;35.73;;;19.07;;
5742;SDS011;2896;53.500;10.020;2023-12-04T04:29:39;36.47;;;18.50;;
5742;SDS011;2896;53.500;10.020;2023-12-04T04:32:06;36.67;;;18.20;;
5742;SDS011;2896;53.500;10.020;2023-12-04T04:34:32;43.40;;;20.97;;
5742;SDS011;2896;53.500;10.020;2023-12-04T04:36:59;48.43;;;20.80;;
5742;SDS011;2896;53.500;10.020;2023-12-04T04:39:26;36.43;;;19.23;;
5742;SDS011;2896;53.500;10.020;2023-12-04T04:41:54;42.00;;;19.57;;
5742;SDS011;2896;53.500;10.020;2023-12-04T04:44:20;52.10;;;21.87;;
5742;SDS011;2896;53.500;10.020;2023-12-04T04:46:47;40.63;;;20.60;;
5742;SDS011;2896;53.500;10.020;2023-12-04T04:49:14;45.07;;;19.57;;
5742;SDS011;2896;53.500;10.020;2023-12-04T04:51:40;50.40;;;19.50;;
5742;SDS011;2896;53.500;10.020;2023-12-04T04:54:08;38.00;;;19.20;;
5742;SDS011;2896;53.500;10.020;2023-12-04T04:56:34;40.50;;;18.90;;
5742;SDS011;2896;53.500;10.020;2023-12-04T04:59:02;47.67;;;21.20;;
5742;SDS011;2896;53.500;10.020;2023-12-04T05:01:29;48.67;;;19.33;;
5742;SDS011;2896;53.500;10.020;2023-12-04T05:03:56;52.53;;;20.37;;
5742;SDS011;2896;53.500;10.020;2023-12-04T05:06:23;41.40;;;19.13;;
5742;SDS011;2896;53.500;10.020;2023-12-04T05:08:49;51.83;;;20.80;;
5742;SDS011;2896;53.500;10.020;2023-12-04T05:11:17;35.20;;;17.10;;
5742;SDS011;2896;53.500;10.020;2023-12-04T05:13:44;38.80;;;18.77;;
5742;SDS011;2896;53.500;10.020;2023-12-04T05:16:12;40.27;;;18.70;;
5742;SDS011;2896;53.500;10.020;2023-12-04T05:18:39;39.17;;;18.93;;
5742;SDS011;2896;53.500;10.020;2023-12-04T05:21:07;42.67;;;18.63;;
5742;SDS011;2896;53.500;10.020;2023-12-04T05:23:35;37.67;;;17.20;;
5742;SDS011;2896;53.500;10.020;2023-12-04T05:26:02;38.20;;;17.80;;
5742;SDS011;2896;53.500;10.020;2023-12-04T05:28:29;40.30;;;19.00;;
5742;SDS011;2896;53.500;10.020;2023-12-04T05:30:55;37.30;;;18.60;;
5742;SDS011;2896;53.500;10.020;2023-12-04T05:33:23;40.30;;;18.23;;
5742;SDS011;2896;53.500;10.020;2023-12-04T05:35:50;44.57;;;20.07;;
5742;SDS011;2896;53.500;10.020;2023-12-04T05:38:17;37.30;;;18.50;;
5742;SDS011;2896;53.500;10.020;2023-12-04T05:40:44;42.97;;;20.93;;
5742;SDS011;2896;53.500;10.020;2023-12-04T05:43:10;42.00;;;19.60;;
5742;SDS011;2896;53.500;10.020;2023-12-04T05:45:38;46.17;;;20.30;;
5742;SDS011;2896;53.500;10.020;2023-12-04T05:48:05;43.13;;;19.97;;
5742;SDS011;2896;53.500;10.020;2023-12-04T05:50:33;37.83;;;19.70;;
5742;SDS011;2896;53.500;10.020;2023-12-04T05:52:59;33.13;;;17.50;;
5742;SDS011;2896;53.500;10.020;2023-12-04T05:55:26;38.80;;;18.83;;
5742;SDS011;2896;53.500;10.020;2023-12-04T05:57:52;44.30;;;19.70;;
5742;SDS011;2896;53.500;10.020;2023-12-04T06:02:45;42.00;;;19.97;;
5742;SDS011;2896;53.500;10.020;2023-12-04T06:05:12;45.37;;;20.10;;
5742;SDS011;2896;53.500;10.020;2023-12-04T06:07:40;43.17;;;20.60;;
5742;SDS011;2896;53.500;10.020;2023-12-04T06:10:07;40.13;;;19.60;;
5742;SDS011;2896;53.500;10.020;2023-12-04T06:12:34;43.50;;;20.80;;
5742;SDS011;2896;53.500;10.020;2023-12-04T06:15:01;48.07;;;21.20;;
5742;SDS011;2896;53.500;10.020;2023-12-04T06:17:28;46.23;;;20.60;;
5742;SDS011;2896;53.500;10.020;2023-12-04T06:19:54;40.63;;;20.10;;
5742;SDS011;2896;53.500;10.020;2023-12-04T06:22:21;43.47;;;21.07;;
5742;SDS011;2896;53.500;10.020;2023-12-04T06:24:50;43.93;;;19.90;;
5742;SDS011;2896;53.500;10.020;2023-12-04T06:27:18;44.07;;;20.97;;
5742;SDS011;2896;53.500;10.020;2023-12-04T06:29:45;45.17;;;21.17;;
5742;SDS011;2896;53.500;10.020;2023-12-04T06:32:14;46.23;;;21.03;;
5742;SDS011;2896;53.500;10.020;2023-12-04T06:34:41;53.43;;;23.00;;
5742;SDS011;2896;53.500;10.020;2023-12-04T06:37:09;51.13;;;20.87;;
5742;SDS011;2896;53.500;10.020;2023-12-04T06:39:37;48.70;;;21.43;;
5742;SDS011;2896;53.500;10.020;2023-12-04T06:42:07;49.17;;;21.47;;
5742;SDS011;2896;53.500;10.020;2023-12-04T06:44:35;46.97;;;20.77;;
5742;SDS011;2896;53.500;10.020;2023-12-04T06:47:02;49.00;;;23.30;;
5742;SDS011;2896;53.500;10.020;2023-12-04T06:49:30;54.37;;;23.23;;
5742;SDS011;2896;53.500;10.020;2023-12-04T06:51:57;49.87;;;21.23;;
5742;SDS011;2896;53.500;10.020;2023-12-04T06:54:24;53.97;;;23.10;;
5742;SDS011;2896;53.500;10.020;2023-12-04T06:56:51;46.30;;;23.10;;
5742;SDS011;2896;53.500;10.020;2023-12-04T06:59:19;54.53;;;22.20;;
5742;SDS011;2896;53.500;10.020;2023-12-04T07:01:46;55.43;;;22.60;;
5742;SDS011;2896;53.500;10.020;2023-12-04T07:04:13;51.40;;;22.00;;
5742;SDS011;2896;53.500;10.020;2023-12-04T07:06:45;54.77;;;23.17;;
5742;SDS011;2896;53.500;10.020;2023-12-04T07:09:12;58.10;;;22.70;;
5742;SDS011;2896;53.500;10.020;2023-12-04T07:11:39;47.70;;;22.07;;
5742;SDS011;2896;53.500;10.020;2023-12-04T07:14:05;60.97;;;24.27;;
5742;SDS011;2896;53.500;10.020;2023-12-04T07:16:39;44.57;;;23.67;;
5742;SDS011;2896;53.500;10.020;2023-12-04T07:19:06;52.43;;;23.40;;
5742;SDS011;2896;53.500;10.020;2023-12-04T07:21:34;68.67;;;26.03;;
5742;SDS011;2896;53.500;10.020;2023-12-04T07:24:00;58.40;;;25.40;;
5742;SDS011;2896;53.500;10.020;2023-12-04T07:26:27;53.83;;;24.10;;
5742;SDS011;2896;53.500;10.020;2023-12-04T07:28:54;54.43;;;22.40;;
5742;SDS011;2896;53.500;10.020;2023-12-04T07:31:20;61.60;;;24.07;;
5742;SDS011;2896;53.500;10.020;2023-12-04T07:33:48;54.13;;;22.80;;
5742;SDS011;2896;53.500;10.020;2023-12-04T07:36:15;53.10;;;23.40;;
5742;SDS011;2896;53.500;10.020;2023-12-04T07:38:41;52.27;;;23.33;;
5742;SDS011;2896;53.500;10.020;2023-12-04T07:41:08;57.33;;;24.70;;
5742;SDS011;2896;53.500;10.020;2023-12-04T07:43:34;58.40;;;23.70;;
5742;SDS011;2896;53.500;10.020;2023-12-04T07:46:01;52.33;;;23.30;;
5742;SDS011;2896;53.500;10.020;2023-12-04T07:48:29;52.33;;;23.10;;
5742;SDS011;2896;53.500;10.020;2023-12-04T07:50:57;65.77;;;25.90;;
5742;SDS011;2896;53.500;10.020;2023-12-04T07:53:24;56.00;;;24.20;;
5742;SDS011;2896;53.500;10.020;2023-12-04T07:55:50;58.27;;;24.40;;
5742;SDS011;2896;53.500;10.020;2023-12-04T07:58:17;50.93;;;22.77;;
5742;SDS011;2896;53.500;10.020;2023-12-04T08:00:43;65.93;;;25.60;;
5742;SDS011;2896;53.500;10.020;2023-12-04T08:03:10;52.03;;;23.47;;
5742;SDS011;2896;53.500;10.020;2023-12-04T08:05:37;56.80;;;24.60;;
5742;SDS011;2896;53.500;10.020;2023-12-04T08:08:05;61.63;;;27.20;;
5742;SDS011;2896;53.500;10.020;2023-12-04T08:10:32;58.70;;;26.73;;
5742;SDS011;2896;53.500;10.020;2023-12-04T08:12:58;71.13;;;27.00;;
5742;SDS011;2896;53.500;10.020;2023-12-04T08:15:25;61.53;;;25.70;;
5742;SDS011;2896;53.500;10.020;2023-12-04T08:17:52;57.80;;;26.20;;
5742;SDS011;2896;53.500;10.020;2023-12-04T08:20:18;50.50;;;23.50;;
5742;SDS011;2896;53.500;10.020;2023-12-04T08:22:47;51.23;;;23.40;;
5742;SDS011;2896;53.500;10.020;2023-12-04T08:25:15;51.73;;;23.93;;
5742;SDS011;2896;53.500;10.020;2023-12-04T08:27:42;50.80;;;24.50;;
5742;SDS011;2896;53.500;10.020;2023-12-04T08:30:09;51.87;;;24.80;;
5742;SDS011;2896;53.500;10.020;2023-12-04T08:32:36;50.03;;;22.80;;
5742;SDS011;2896;53.500;10.020;2023-12-04T08:35:02;58.13;;;24.30;;
5742;SDS011;2896;53.500;10.020;2023-12-04T08:37:31;45.10;;;21.80;;
5742;SDS011;2896;53.500;10.020;2023-12-04T08:39:57;57.73;;;26.23;;
5742;SDS011;2896;53.500;10.020;2023-12-04T08:42:25;58.17;;;25.20;;
5742;SDS011;2896;53.500;10.020;2023-12-04T08:44:52;47.70;;;21.83;;
5742;SDS011;2896;53.500;10.020;2023-12-04T08:47:19;49.23;;;22.10;;
5742;SDS011;2896;53.500;10.020;2023-12-04T08:49:45;51.63;;;22.37;;
5742;SDS011;2896;53.500;10.020;2023-12-04T08:52:12;54.00;;;23.90;;
5742;SDS011;2896;53.500;10.020;2023-12-04T08:54:39;61.33;;;24.70;;
5742;SDS011;2896;53.500;10.020;2023-12-04T08:57:06;58.23;;;23.63;;
5742;SDS011;2896;53.500;10.020;2023-12-04T08:59:35;51.73;;;23.00;;
5742;SDS011;2896;53.500;10.020;2023-12-04T09:02:02;54.43;;;24.63;;
5742;SDS011;2896;53.500;10.020;2023-12-04T09:04:29;56.47;;;25.20;;
5742;SDS011;2896;53.500;10.020;2023-12-04T09:06:56;57.40;;;22.93;;
5742;SDS011;2896;53.500;10.020;2023-12-04T09:09:23;62.63;;;26.50;;
5742;SDS011;2896;53.500;10.020;2023-12-04T09:11:49;53.03;;;25.17;;
5742;SDS011;2896;53.500;10.020;2023-12-04T09:14:16;48.20;;;23.63;;
5742;SDS011;2896;53.500;10.020;2023-12-04T09:16:44;61.47;;;26.30;;
5742;SDS011;2896;53.500;10.020;2023-12-04T09:19:11;61.13;;;25.33;;
5742;SDS011;2896;53.500;10.020;2023-12-04T09:21:38;47.23;;;24.50;;
5742;SDS011;2896;53.500;10.020;2023-12-04T09:24:05;57.33;;;23.47;;
5742;SDS011;2896;53.500;10.020;2023-12-04T09:26:32;60.47;;;24.60;;
5742;SDS011;2896;53.500;10.020;2023-12-04T09:28:59;62.00;;;22.93;;
5742;SDS011;2896;53.500;10.020;2023-12-04T09:31:25;56.13;;;26.40;;
5742;SDS011;2896;53.500;10.020;2023-12-04T09:33:53;50.60;;;24.10;;
5742;SDS011;2896;53.500;10.020;2023-12-04T09:36:20;58.27;;;25.10;;
5742;SDS011;2896;53.500;10.020;2023-12-04T09:38:46;52.40;;;24.30;;
5742;SDS011;2896;53.500;10.020;2023-12-04T09:41:13;53.97;;;24.40;;
5742;SDS011;2896;53.500;10.020;2023-12-04T09:43:42;50.60;;;23.47;;
5742;SDS011;2896;53.500;10.020;2023-12-04T09:46:10;62.93;;;24.73;;
5742;SDS011;2896;53.500;10.020;2023-12-04T09:48:37;55.20;;;25.27;;
5742;SDS011;2896;53.500;10.020;2023-12-04T09:51:08;61.30;;;24.50;;
5742;SDS011;2896;53.500;10.020;2023-12-04T09:53:35;63.03;;;26.60;;
5742;SDS011;2896;53.500;10.020;2023-12-04T09:56:03;54.47;;;25.30;;
5742;SDS011;2896;53.500;10.020;2023-12-04T09:58:30;62.80;;;25.80;;
5742;SDS011;2896;53.500;10.020;2023-12-04T10:00:58;50.37;;;23.67;;
5742;SDS011;2896;53.500;10.020;2023-12-04T10:03:25;48.10;;;23.83;;
5742;SDS011;2896;53.500;10.020;2023-12-04T10:05:53;50.00;;;23.07;;
5742;SDS011;2896;53.500;10.020;2023-12-04T10:08:22;51.93;;;24.40;;
5742;SDS011;2896;53.500;10.020;2023-12-04T10:10:48;46.57;;;22.87;;
5742;SDS011;2896;53.500;10.020;2023-12-04T10:13:15;48.13;;;23.30;;
5742;SDS011;2896;53.500;10.020;2023-12-04T10:15:47;42.80;;;21.00;;
5742;SDS011;2896;53.500;10.020;2023-12-04T10:18:24;46.27;;;20.60;;
5742;SDS011;2896;53.500;10.020;2023-12-04T10:20:52;40.40;;;20.83;;
5742;SDS011;2896;53.500;10.020;2023-12-04T10:23:19;41.57;;;21.50;;
5742;SDS011;2896;53.500;10.020;2023-12-04T10:25:48;45.97;;;20.60;;
5742;SDS011;2896;53.500;10.020;2023-12-04T10:28:15;44.77;;;20.40;;
5742;SDS011;2896;53.500;10.020;2023-12-04T10:30:42;44.63;;;20.80;;
5742;SDS011;2896;53.500;10.020;2023-12-04T10:33:09;40.03;;;19.80;;
5742;SDS011;2896;53.500;10.020;2023-12-04T10:35:36;45.17;;;21.60;;
5742;SDS011;2896;53.500;10.020;2023-12-04T10:38:03;46.40;;;21.27;;
5742;SDS011;2896;53.500;10.020;2023-12-04T10:40:32;41.20;;;19.10;;
5742;SDS011;2896;53.500;10.020;2023-12-04T10:43:09;37.73;;;19.67;;
5742;SDS011;2896;53.500;10.020;2023-12-04T10:45:39;38.47;;;19.80;;
5742;SDS011;2896;53.500;10.020;2023-12-04T10:48:07;36.53;;;19.67;;
5742;SDS011;2896;53.500;10.020;2023-12-04T10:50:35;43.80;;;21.33;;
5742;SDS011;2896;53.500;10.020;2023-12-04T10:53:04;38.50;;;19.77;;
5742;SDS011;2896;53.500;10.020;2023-12-04T10:55:32;39.37;;;19.90;;
5742;SDS011;2896;53.500;10.020;2023-12-04T10:57:59;40.73;;;18.37;;
5742;SDS011;2896;53.500;10.020;2023-12-04T11:00:28;38.47;;;19.30;;
5742;SDS011;2896;53.500;10.020;2023-12-04T11:02:59;37.57;;;20.30;;
5742;SDS011;2896;53.500;10.020;2023-12-04T11:05:30;39.23;;;20.10;;
5742;SDS011;2896;53.500;10.020;2023-12-04T11:08:00;33.57;;;18.30;;
5742;SDS011;2896;53.500;10.020;2023-12-04T11:10:29;37.97;;;19.87;;
5742;SDS011;2896;53.500;10.020;2023-12-04T11:13:00;31.27;;;18.03;;
5742;SDS011;2896;53.500;10.020;2023-12-04T11:15:31;30.57;;;17.53;;
5742;SDS011;2896;53.500;10.020;2023-12-04T11:18:05;40.40;;;18.93;;
5742;SDS011;2896;53.500;10.020;2023-12-04T11:20:34;40.43;;;19.53;;
5742;SDS011;2896;53.500;10.020;2023-12-04T11:23:07;36.37;;;17.67;;
5742;SDS011;2896;53.500;10.020;2023-12-04T11:25:35;39.43;;;18.20;;
5742;SDS011;2896;53.500;10.020;2023-12-04T11:28:02;37.00;;;16.70;;
5742;SDS011;2896;53.500;10.020;2023-12-04T11:30:30;29.20;;;15.60;;
5742;SDS011;2896;53.500;10.020;2023-12-04T11:32:59;33.97;;;17.00;;
5742;SDS011;2896;53.500;10.020;2023-12-04T11:35:26;33.77;;;18.33;;
5742;SDS011;2896;53.500;10.020;2023-12-04T11:37:53;32.53;;;17.07;;
5742;SDS011;2896;53.500;10.020;2023-12-04T11:40:20;40.43;;;18.83;;
5742;SDS011;2896;53.500;10.020;2023-12-04T11:42:48;37.63;;;17.40;;
5742;SDS011;2896;53.500;10.020;2023-12-04T11:45:18;31.27;;;17.10;;
5742;SDS011;2896;53.500;10.020;2023-12-04T11:47:48;39.67;;;18.37;;
5742;SDS011;2896;53.500;10.020;2023-12-04T11:50:16;31.87;;;17.57;;
5742;SDS011;2896;53.500;10.020;2023-12-04T11:52:44;40.40;;;18.00;;
5742;SDS011;2896;53.500;10.020;2023-12-04T11:55:11;29.67;;;17.00;;
5742;SDS011;2896;53.500;10.020;2023-12-04T11:57:41;34.50;;;18.20;;
5742;SDS011;2896;53.500;10.020;2023-12-04T12:00:13;31.20;;;17.77;;
5742;SDS011;2896;53.500;10.020;2023-12-04T12:02:47;31.90;;;16.83;;
5742;SDS011;2896;53.500;10.020;2023-12-04T12:05:27;33.50;;;17.90;;
5742;SDS011;2896;53.500;10.020;2023-12-04T12:07:54;30.27;;;16.80;;
5742;SDS011;2896;53.500;10.020;2023-12-04T12:10:21;33.60;;;17.10;;
5742;SDS011;2896;53.500;10.020;2023-12-04T12:12:47;32.27;;;17.13;;
5742;SDS011;2896;53.500;10.020;2023-12-04T12:15:15;31.83;;;16.60;;
5742;SDS011;2896;53.500;10.020;2023-12-04T12:17:42;31.40;;;17.00;;
5742;SDS011;2896;53.500;10.020;2023-12-04T12:20:10;31.50;;;18.00;;
5742;SDS011;2896;53.500;10.020;2023-12-04T12:22:38;28.93;;;17.07;;
5742;SDS011;2896;53.500;10.020;2023-12-04T12:25:07;37.57;;;16.93;;
5742;SDS011;2896;53.500;10.020;2023-12-04T12:27:34;28.87;;;16.30;;
5742;SDS011;2896;53.500;10.020;2023-12-04T12:30:01;32.23;;;16.77;;
5742;SDS011;2896;53.500;10.020;2023-12-04T12:32:30;41.03;;;18.80;;
5742;SDS011;2896;53.500;10.020;2023-12-04T12:34:57;33.47;;;17.43;;
5742;SDS011;2896;53.500;10.020;2023-12-04T12:37:24;38.03;;;17.40;;
5742;SDS011;2896;53.500;10.020;2023-12-04T12:39:51;30.17;;;16.20;;
5742;SDS011;2896;53.500;10.020;2023-12-04T12:42:21;32.60;;;18.10;;
5742;SDS011;2896;53.500;10.020;2023-12-04T12:44:48;29.50;;;16.13;;
5742;SDS011;2896;53.500;10.020;2023-12-04T12:47:15;31.20;;;17.87;;
5742;SDS011;2896;53.500;10.020;2023-12-04T12:49:43;28.43;;;16.90;;
5742;SDS011;2896;53.500;10.020;2023-12-04T12:52:09;40.03;;;17.73;;
5742;SDS011;2896;53.500;10.020;2023-12-04T12:54:37;33.13;;;16.73;;
5742;SDS011;2896;53.500;10.020;2023-12-04T12:57:04;31.23;;;17.33;;
5742;SDS011;2896;53.500;10.020;2023-12-04T12:59:32;27.07;;;16.10;;
5742;SDS011;2896;53.500;10.020;2023-12-04T13:01:58;28.97;;;17.50;;
5742;SDS011;2896;53.500;10.020;2023-12-04T13:04:26;31.63;;;16.37;;
5742;SDS011;2896;53.500;10.020;2023-12-04T13:07:00;28.70;;;16.50;;
5742;SDS011;2896;53.500;10.020;2023-12-04T13:09:27;29.57;;;16.57;;
5742;SDS011;2896;53.500;10.020;2023-12-04T13:11:54;38.83;;;18.63;;
5742;SDS011;2896;53.500;10.020;2023-12-04T13:14:21;30.47;;;15.93;;
5742;SDS011;2896;53.500;10.020;2023-12-04T13:16:47;36.23;;;19.43;;
5742;SDS011;2896;53.500;10.020;2023-12-04T13:19:14;35.03;;;18.77;;
5742;SDS011;2896;53.500;10.020;2023-12-04T13:21:42;34.43;;;17.53;;
5742;SDS011;2896;53.500;10.020;2023-12-04T13:24:10;33.83;;;17.20;;
5742;SDS011;2896;53.500;10.020;2023-12-04T13:26:37;32.80;;;17.77;;
5742;SDS011;2896;53.500;10.020;2023-12-04T13:29:05;31.37;;;17.67;;
5742;SDS011;2896;53.500;10.020;2023-12-04T13:31:32;25.97;;;15.60;;
5742;SDS011;2896;53.500;10.020;2023-12-04T13:33:59;31.00;;;17.87;;
5742;SDS011;2896;53.500;10.020;2023-12-04T13:36:25;31.50;;;17.33;;
5742;SDS011;2896;53.500;10.020;2023-12-04T13:38:53;33.10;;;17.90;;
5742;SDS011;2896;53.500;10.020;2023-12-04T13:41:21;35.33;;;18.53;;
5742;SDS011;2896;53.500;10.020;2023-12-04T13:44:05;30.23;;;16.63;;
5742;SDS011;2896;53.500;10.020;2023-12-04T13:46:32;38.17;;;18.50;;
5742;SDS011;2896;53.500;10.020;2023-12-04T13:48:59;31.13;;;16.33;;
5742;SDS011;2896;53.500;10.020;2023-12-04T13:51:26;29.67;;;16.97;;
5742;SDS011;2896;53.500;10.020;2023-12-04T13:53:53;31.77;;;17.87;;
5742;SDS011;2896;53.500;10.020;2023-12-04T13:56:27;29.93;;;16.53;;
5742;SDS011;2896;53.500;10.020;2023-12-04T13:59:07;33.33;;;17.70;;
5742;SDS011;2896;53.500;10.020;2023-12-04T14:01:42;35.80;;;18.10;;
5742;SDS011;2896;53.500;10.020;2023-12-04T14:04:08;42.13;;;18.20;;
5742;SDS011;2896;53.500;10.020;2023-12-04T14:06:35;31.20;;;16.00;;
5742;SDS011;2896;53.500;10.020;2023-12-04T14:09:01;34.23;;;17.70;;
5742;SDS011;2896;53.500;10.020;2023-12-04T14:11:31;34.93;;;18.40;;
5742;SDS011;2896;53.500;10.020;2023-12-04T14:13:57;35.57;;;18.73;;
5742;SDS011;2896;53.500;10.020;2023-12-04T14:16:24;30.97;;;17.00;;
5742;SDS011;2896;53.500;10.020;2023-12-04T14:18:50;32.17;;;17.90;;
5742;SDS011;2896;53.500;10.020;2023-12-04T14:21:17;34.03;;;17.23;;
5742;SDS011;2896;53.500;10.020;2023-12-04T14:23:43;36.40;;;16.93;;
5742;SDS011;2896;53.500;10.020;2023-12-04T14:26:10;36.33;;;18.47;;
5742;SDS011;2896;53.500;10.020;2023-12-04T14:28:38;34.03;;;18.53;;
5742;SDS011;2896;53.500;10.020;2023-12-04T14:31:05;33.70;;;18.07;;
5742;SDS011;2896;53.500;10.020;2023-12-04T14:33:32;35.70;;;18.93;;
5742;SDS011;2896;53.500;10.020;2023-12-04T14:35:59;37.77;;;17.70;;
5742;SDS011;2896;53.500;10.020;2023-12-04T14:38:26;30.87;;;18.00;;